Time;durP1;ratioP1;P1;durP2;ratioP2;P2;SDS_P1;SDS_P2;PMS_P1;PMS_P2;Temp;Humidity;BMP_temperature;BMP_pressure;BME280_temperature;BME280_humidity;BME280_pressure;Samples;Min_cycle;Max_cycle;Signal;HPM_P1;HPM_P2
2022/03/10 00:01:21;;;;;;;;;;;;;;;-12.99;48.75;100717.38;4917127;29;19978;-61
2022/03/10 00:03:47;;;;;;;;;;;;;;;-12.98;48.86;100716.47;4903037;29;19934;-63
2022/03/10 00:06:13;;;;;;;;;;;;;;;-12.94;48.86;100723.13;4899002;29;19932;-61
2022/03/10 00:08:40;;;;;;;;;;;;;;;-12.91;48.73;100725.56;4859879;29;19927;-62
2022/03/10 00:11:06;;;;;;;;;;;;;;;-12.93;49.99;100727.38;4898721;29;19938;-62
2022/03/10 00:13:31;;;;;;;;;;;;;;;-12.91;49.38;100730.66;4898175;29;20055;-61
2022/03/10 00:15:59;;;;;;;;;;;;;;;-12.94;48.72;100729.09;4900655;29;20309;-62
2022/03/10 00:18:24;;;;;;;;;;;;;;;-12.94;48.79;100734.19;4898380;29;20444;-62
2022/03/10 00:20:50;;;;;;;;;;;;;;;-12.94;49.73;100726.53;4898567;29;19962;-62
2022/03/10 00:23:16;;;;;;;;;;;;;;;-13.00;49.31;100728.44;4897201;29;19962;-62
2022/03/10 00:25:41;;;;;;;;;;;;;;;-13.07;49.96;100733.78;4916012;29;19931;-62
2022/03/10 00:28:07;;;;;;;;;;;;;;;-13.06;49.04;100739.72;4916780;29;19927;-63
2022/03/10 00:30:32;;;;;;;;;;;;;;;-13.07;50.46;100732.94;4902009;29;20020;-62
2022/03/10 00:32:59;;;;;;;;;;;;;;;-13.05;48.69;100743.94;4898846;29;20018;-63
2022/03/10 00:35:25;;;;;;;;;;;;;;;-13.08;50.42;100734.69;4898178;29;20033;-63
2022/03/10 00:37:50;;;;;;;;;;;;;;;-13.21;49.42;100724.94;4885425;29;19981;-62
2022/03/10 00:40:16;;;;;;;;;;;;;;;-13.13;50.49;100744.19;4917024;29;19931;-61
2022/03/10 00:42:42;;;;;;;;;;;;;;;-13.13;49.70;100741.66;4913472;29;20377;-63
2022/03/10 00:45:08;;;;;;;;;;;;;;;-13.22;50.47;100749.63;4915285;29;20389;-60
2022/03/10 00:47:34;;;;;;;;;;;;;;;-13.20;49.88;100758.06;4880858;29;19943;-62
2022/03/10 00:50:00;;;;;;;;;;;;;;;-13.20;50.42;100763.19;4914684;29;19938;-62
2022/03/10 00:52:25;;;;;;;;;;;;;;;-13.16;50.13;100763.91;4916378;29;19927;-63
2022/03/10 00:54:51;;;;;;;;;;;;;;;-13.20;50.47;100768.28;4916665;29;19986;-63
2022/03/10 00:57:17;;;;;;;;;;;;;;;-13.22;50.57;100766.66;4915117;29;19998;-63
2022/03/10 00:59:42;;;;;;;;;;;;;;;-13.29;50.45;100764.34;4916384;29;19995;-62
2022/03/10 01:02:08;;;;;;;;;;;;;;;-13.26;50.67;100768.53;4916466;29;20396;-63
2022/03/10 01:04:33;;;;;;;;;;;;;;;-13.27;50.49;100772.78;4916273;29;19954;-61
2022/03/10 01:06:59;;;;;;;;;;;;;;;-13.20;49.01;100775.13;4916223;29;20070;-62
2022/03/10 01:09:24;;;;;;;;;;;;;;;-13.20;48.96;100768.28;4913620;29;19923;-62
2022/03/10 01:11:50;;;;;;;;;;;;;;;-13.22;49.01;100772.59;4897373;29;20394;-65
2022/03/10 01:14:15;;;;;;;;;;;;;;;-13.36;50.66;100755.22;4896649;29;19927;-62
2022/03/10 01:16:41;;;;;;;;;;;;;;;-13.18;49.00;100778.41;4897690;29;20380;-60
2022/03/10 01:19:08;;;;;;;;;;;;;;;-13.20;49.32;100772.56;4914763;29;19933;-63
2022/03/10 01:21:34;;;;;;;;;;;;;;;-13.18;49.83;100773.31;4916443;29;19979;-61
2022/03/10 01:23:59;;;;;;;;;;;;;;;-13.24;50.36;100773.53;4915814;29;19927;-64
2022/03/10 01:26:25;;;;;;;;;;;;;;;-13.28;49.76;100771.13;4916333;29;19938;-62
2022/03/10 01:28:50;;;;;;;;;;;;;;;-13.24;50.68;100776.91;4915172;29;19943;-61
2022/03/10 01:31:16;;;;;;;;;;;;;;;-13.33;49.83;100777.25;4916211;29;20014;-62
2022/03/10 01:33:42;;;;;;;;;;;;;;;-13.34;50.01;100773.88;4915737;29;20365;-63
2022/03/10 01:36:07;;;;;;;;;;;;;;;-13.34;49.66;100786.63;4899062;29;19931;-62
2022/03/10 01:38:33;;;;;;;;;;;;;;;-13.34;49.51;100796.84;4902853;29;19990;-62
2022/03/10 01:40:58;;;;;;;;;;;;;;;-13.39;50.01;100791.03;4897147;29;19938;-62
2022/03/10 01:43:24;;;;;;;;;;;;;;;-13.35;49.77;100791.78;4895710;29;19932;-64
2022/03/10 01:45:50;;;;;;;;;;;;;;;-13.36;50.22;100790.94;4880040;29;19935;-62
2022/03/10 01:48:15;;;;;;;;;;;;;;;-13.36;50.46;100797.78;4896928;29;19927;-62
2022/03/10 01:50:41;;;;;;;;;;;;;;;-13.35;49.93;100799.41;4899887;29;20054;-62
2022/03/10 01:53:06;;;;;;;;;;;;;;;-13.39;50.86;100802.97;4915531;29;19927;-63
2022/03/10 01:55:32;;;;;;;;;;;;;;;-13.37;49.58;100796.13;4898521;29;20014;-62
2022/03/10 01:57:57;;;;;;;;;;;;;;;-13.41;51.14;100797.06;4914571;29;19934;-63
2022/03/10 02:00:23;;;;;;;;;;;;;;;-13.41;51.14;100797.94;4914185;29;20309;-63
2022/03/10 02:02:49;;;;;;;;;;;;;;;-13.45;51.35;100798.06;4913846;29;19927;-63
2022/03/10 02:05:15;;;;;;;;;;;;;;;-13.47;51.43;100810.03;4915305;29;20460;-62
2022/03/10 02:10:26;;;;;;;;;;;;;;;-13.58;51.26;100813.78;4895878;29;19928;-63
2022/03/10 02:12:53;;;;;;;;;;;;;;;-13.61;50.45;100808.78;4896697;29;19927;-62
2022/03/10 02:18:05;;;;;;;;;;;;;;;-13.65;50.70;100809.75;4896698;29;19939;-63
2022/03/10 02:20:30;;;;;;;;;;;;;;;-13.69;50.82;100818.38;4879880;29;20398;-62
2022/03/10 02:22:56;;;;;;;;;;;;;;;-13.69;51.06;100815.00;4898292;29;19927;-64
2022/03/10 02:25:22;;;;;;;;;;;;;;;-13.77;51.96;100820.31;4915698;29;19931;-61
2022/03/10 02:27:49;;;;;;;;;;;;;;;-13.78;51.52;100816.13;4918255;29;20384;-62
2022/03/10 02:30:15;;;;;;;;;;;;;;;-13.83;51.36;100829.00;4917348;29;19931;-62
2022/03/10 02:32:40;;;;;;;;;;;;;;;-13.86;51.94;100826.53;4902401;29;19934;-63
2022/03/10 02:35:06;;;;;;;;;;;;;;;-13.84;51.56;100835.00;4903141;29;20386;-61
2022/03/10 02:37:32;;;;;;;;;;;;;;;-13.93;51.96;100840.38;4900086;29;19927;-62
2022/03/10 02:39:57;;;;;;;;;;;;;;;-13.90;51.84;100835.19;4899979;29;19931;-62
2022/03/10 02:42:23;;;;;;;;;;;;;;;-14.01;52.02;100832.94;4914039;29;19927;-62
2022/03/10 02:44:49;;;;;;;;;;;;;;;-13.98;53.06;100840.50;4918447;29;19962;-62
2022/03/10 02:47:15;;;;;;;;;;;;;;;-13.96;51.71;100845.56;4917528;29;20405;-62
2022/03/10 02:49:41;;;;;;;;;;;;;;;-13.99;52.17;100845.66;4918633;29;20029;-62
2022/03/10 02:52:07;;;;;;;;;;;;;;;-14.01;52.55;100842.31;4918980;29;19927;-62
2022/03/10 02:54:32;;;;;;;;;;;;;;;-14.05;52.13;100850.94;4907366;29;19928;-63
2022/03/10 02:56:58;;;;;;;;;;;;;;;-14.11;52.52;100841.75;4898570;29;20317;-64
2022/03/10 02:59:23;;;;;;;;;;;;;;;-14.15;53.35;100847.81;4899376;29;20042;-63
2022/03/10 03:01:49;;;;;;;;;;;;;;;-14.16;53.32;100848.69;4905793;29;19977;-63
2022/03/10 03:04:15;;;;;;;;;;;;;;;-14.24;53.33;100848.91;4917255;29;19934;-63
2022/03/10 03:06:41;;;;;;;;;;;;;;;-14.28;53.40;100852.44;4917356;29;20459;-62
2022/03/10 03:09:06;;;;;;;;;;;;;;;-14.25;53.01;100862.53;4916154;29;19927;-60
2022/03/10 03:11:32;;;;;;;;;;;;;;;-14.27;53.64;100866.00;4917067;29;19978;-61
2022/03/10 03:13:57;;;;;;;;;;;;;;;-14.31;53.92;100869.53;4916556;29;19933;-61
2022/03/10 03:16:24;;;;;;;;;;;;;;;-14.41;53.30;100863.81;4917172;29;20510;-62
2022/03/10 03:18:50;;;;;;;;;;;;;;;-14.36;53.08;100862.00;4918088;29;19931;-61
2022/03/10 03:21:16;;;;;;;;;;;;;;;-14.44;53.35;100872.41;4916708;29;19959;-63
2022/03/10 03:23:41;;;;;;;;;;;;;;;-14.39;53.83;100872.25;4917996;29;19933;-63
2022/03/10 03:26:07;;;;;;;;;;;;;;;-14.35;53.95;100878.97;4899995;29;20030;-63
2022/03/10 03:28:32;;;;;;;;;;;;;;;-14.33;53.45;100878.91;4912992;29;19975;-64
2022/03/10 03:30:58;;;;;;;;;;;;;;;-14.48;54.03;100878.44;4900847;29;19931;-62
2022/03/10 03:33:23;;;;;;;;;;;;;;;-14.55;54.25;100887.16;4917978;29;20340;-60
2022/03/10 03:35:49;;;;;;;;;;;;;;;-14.56;54.80;100884.66;4904623;29;20334;-63
2022/03/10 03:38:14;;;;;;;;;;;;;;;-14.50;54.09;100889.53;4897236;29;20568;-64
2022/03/10 03:40:40;;;;;;;;;;;;;;;-14.62;54.59;100883.09;4898798;29;19932;-61
2022/03/10 03:43:06;;;;;;;;;;;;;;;-14.63;54.91;100886.53;4898015;29;19976;-62
2022/03/10 03:45:31;;;;;;;;;;;;;;;-14.64;54.84;100887.41;4915312;29;19931;-61
2022/03/10 03:47:57;;;;;;;;;;;;;;;-14.63;54.95;100891.63;4917708;29;19927;-62
2022/03/10 03:50:23;;;;;;;;;;;;;;;-14.65;54.46;100899.28;4908695;29;20398;-62
2022/03/10 03:52:48;;;;;;;;;;;;;;;-14.61;54.69;100896.69;4897570;29;19928;-63
2022/03/10 03:55:14;;;;;;;;;;;;;;;-14.72;54.73;100907.16;4898573;29;20026;-62
2022/03/10 03:57:40;;;;;;;;;;;;;;;-14.66;54.48;100905.28;4898904;29;19927;-63
2022/03/10 04:00:07;;;;;;;;;;;;;;;-14.67;54.49;100905.31;4898479;29;19986;-63
2022/03/10 04:02:35;;;;;;;;;;;;;;;-14.74;54.67;100906.34;4897373;29;19931;-62
2022/03/10 04:05:00;;;;;;;;;;;;;;;-14.65;54.14;100909.47;4914915;29;19938;-62
2022/03/10 04:07:26;;;;;;;;;;;;;;;-14.68;54.43;100904.47;4917234;29;19927;-63
2022/03/10 04:09:52;;;;;;;;;;;;;;;-14.53;53.87;100910.84;4915758;29;19927;-62
2022/03/10 04:12:18;;;;;;;;;;;;;;;-14.36;53.38;100918.03;4899881;29;19958;-61
2022/03/10 04:14:43;;;;;;;;;;;;;;;-14.28;53.24;100912.72;4897214;29;19938;-63
2022/03/10 04:17:09;;;;;;;;;;;;;;;-14.16;52.58;100919.19;4898014;29;20286;-62
2022/03/10 04:19:34;;;;;;;;;;;;;;;-14.21;53.64;100924.41;4897897;29;20316;-62
2022/03/10 04:22:00;;;;;;;;;;;;;;;-14.15;53.18;100918.31;4916821;29;19927;-61
2022/03/10 04:24:25;;;;;;;;;;;;;;;-14.08;52.13;100932.56;4916841;29;20316;-62
2022/03/10 04:26:51;;;;;;;;;;;;;;;-14.06;53.02;100930.78;4916760;29;20021;-64
2022/03/10 04:29:17;;;;;;;;;;;;;;;-13.99;52.26;100935.69;4916532;29;19934;-64
2022/03/10 04:31:43;;;;;;;;;;;;;;;-14.06;52.91;100939.25;4904467;29;20322;-62
2022/03/10 04:34:09;;;;;;;;;;;;;;;-14.06;52.64;100938.44;4897968;29;19956;-63
2022/03/10 04:36:34;;;;;;;;;;;;;;;-14.15;52.91;100949.72;4898061;29;20424;-62
2022/03/10 04:39:00;;;;;;;;;;;;;;;-14.12;52.85;100947.09;4898132;29;19927;-64
2022/03/10 04:41:26;;;;;;;;;;;;;;;-14.10;52.19;100936.84;4916302;29;19967;-63
2022/03/10 04:43:52;;;;;;;;;;;;;;;-14.15;53.22;100933.59;4915190;29;19985;-63
2022/03/10 04:46:18;;;;;;;;;;;;;;;-14.14;53.14;100940.38;4915658;29;19931;-62
2022/03/10 04:48:43;;;;;;;;;;;;;;;-14.03;52.38;100935.78;4899529;29;19938;-62
2022/03/10 04:51:09;;;;;;;;;;;;;;;-13.99;52.38;100937.41;4899864;29;19935;-62
2022/03/10 04:53:34;;;;;;;;;;;;;;;-13.89;52.47;100953.25;4902796;29;19978;-62
2022/03/10 04:56:00;;;;;;;;;;;;;;;-13.85;51.67;100950.59;4913321;29;19977;-62
2022/03/10 04:58:25;;;;;;;;;;;;;;;-13.74;51.74;100952.81;4914684;29;20387;-62
2022/03/10 05:00:51;;;;;;;;;;;;;;;-13.74;52.01;100963.00;4899469;29;19939;-61
2022/03/10 05:03:16;;;;;;;;;;;;;;;-13.62;50.51;100964.38;4904177;29;19927;-62
2022/03/10 05:05:42;;;;;;;;;;;;;;;-13.54;50.78;100953.06;4916111;29;19931;-63
2022/03/10 05:08:08;;;;;;;;;;;;;;;-13.51;50.49;100959.78;4911903;29;19978;-62
2022/03/10 05:10:33;;;;;;;;;;;;;;;-13.51;50.22;100955.50;4914479;29;19938;-63
2022/03/10 05:13:02;;;;;;;;;;;;;;;-13.50;50.49;100971.66;4915971;29;20397;-62
2022/03/10 05:15:30;;;;;;;;;;;;;;;-13.35;50.70;100971.22;4912175;29;19935;-62
2022/03/10 05:17:56;;;;;;;;;;;;;;;-13.25;50.74;100970.94;4913339;29;20412;-62
2022/03/10 05:20:24;;;;;;;;;;;;;;;-13.14;49.03;100976.50;4912638;29;19959;-61
2022/03/10 05:22:50;;;;;;;;;;;;;;;-13.15;49.31;100983.31;4910851;29;19927;-62
2022/03/10 05:25:16;;;;;;;;;;;;;;;-13.02;49.93;100988.88;4912677;29;20281;-62
2022/03/10 05:27:42;;;;;;;;;;;;;;;-12.93;50.29;100990.31;4910230;29;19933;-61
2022/03/10 05:30:08;;;;;;;;;;;;;;;-12.82;49.74;100986.53;4895150;29;19938;-62
2022/03/10 05:32:34;;;;;;;;;;;;;;;-12.76;49.03;100992.31;4904358;29;19931;-63
2022/03/10 05:35:03;;;;;;;;;;;;;;;-12.64;49.07;100991.94;4911885;29;20059;-62
2022/03/10 05:37:29;;;;;;;;;;;;;;;-12.60;48.06;100989.22;4912469;29;20211;-60
2022/03/10 05:39:55;;;;;;;;;;;;;;;-12.53;48.34;100989.00;4910309;29;19942;-61
2022/03/10 05:42:20;;;;;;;;;;;;;;;-12.39;47.84;100997.03;4909988;29;20297;-62
2022/03/10 05:44:46;;;;;;;;;;;;;;;-12.28;47.11;100997.50;4910365;29;20479;-62
2022/03/10 05:47:11;;;;;;;;;;;;;;;-12.09;46.64;101004.53;4908251;29;19926;-62
2022/03/10 05:49:37;;;;;;;;;;;;;;;-11.98;46.09;101000.72;4896057;29;19931;-62
2022/03/10 05:52:03;;;;;;;;;;;;;;;-11.84;47.13;101007.88;4894868;29;19991;-61
2022/03/10 05:54:28;;;;;;;;;;;;;;;-11.72;45.43;101012.53;4910087;29;19933;-60
2022/03/10 05:56:54;;;;;;;;;;;;;;;-11.68;46.43;101008.97;4909840;29;19931;-61
2022/03/10 05:59:20;;;;;;;;;;;;;;;-11.59;46.30;101012.94;4913050;29;20544;-62
2022/03/10 06:01:46;;;;;;;;;;;;;;;-11.56;45.09;101019.66;4905991;29;20026;-65
2022/03/10 06:04:11;;;;;;;;;;;;;;;-11.46;44.77;101019.28;4909952;29;19934;-62
2022/03/10 06:06:37;;;;;;;;;;;;;;;-11.21;44.46;101024.28;4916778;29;19931;-61
2022/03/10 06:09:02;;;;;;;;;;;;;;;-11.09;43.65;101020.44;4907470;29;19978;-62
2022/03/10 06:11:28;;;;;;;;;;;;;;;-11.06;44.23;101015.22;4919488;29;19931;-62
2022/03/10 06:13:54;;;;;;;;;;;;;;;-10.88;43.23;101023.03;4909332;29;19938;-62
2022/03/10 06:16:19;;;;;;;;;;;;;;;-10.77;43.30;101024.28;4899169;29;20160;-61
2022/03/10 06:18:45;;;;;;;;;;;;;;;-10.70;43.59;101024.91;4901842;29;20301;-63
2022/03/10 06:21:11;;;;;;;;;;;;;;;-10.69;43.80;101030.84;4900297;29;19938;-62
2022/03/10 06:23:36;;;;;;;;;;;;;;;-10.64;43.60;101023.81;4903382;29;20278;-63
2022/03/10 06:26:02;;;;;;;;;;;;;;;-10.45;43.13;101029.03;4910208;29;19931;-62
2022/03/10 06:28:27;;;;;;;;;;;;;;;-10.32;42.25;101032.75;4908640;29;19927;-62
2022/03/10 06:30:53;;;;;;;;;;;;;;;-10.30;42.19;101033.50;4901779;29;19931;-62
2022/03/10 06:33:18;;;;;;;;;;;;;;;-10.23;42.34;101031.47;4914852;29;20473;-61
2022/03/10 06:35:44;;;;;;;;;;;;;;;-10.20;41.87;101031.38;4900449;29;20282;-62
2022/03/10 06:38:10;;;;;;;;;;;;;;;-10.06;41.56;101034.16;4899157;29;19927;-63
2022/03/10 06:40:36;;;;;;;;;;;;;;;-10.02;41.36;101042.59;4908470;29;20037;-63
2022/03/10 06:43:01;;;;;;;;;;;;;;;-9.98;41.24;101039.81;4884455;29;19928;-61
2022/03/10 06:45:27;;;;;;;;;;;;;;;-9.89;41.49;101036.03;4912860;29;19938;-62
2022/03/10 06:47:52;;;;;;;;;;;;;;;-9.90;41.43;101040.31;4910097;29;20033;-61
2022/03/10 06:50:18;;;;;;;;;;;;;;;-9.81;40.40;101044.22;4913094;29;19938;-63
2022/03/10 06:52:46;;;;;;;;;;;;;;;-9.83;40.72;101051.16;4902598;29;20404;-64
2022/03/10 06:55:12;;;;;;;;;;;;;;;-9.70;40.01;101051.47;4902710;29;20381;-63
2022/03/10 06:57:38;;;;;;;;;;;;;;;-9.67;40.49;101051.34;4898940;29;19935;-63
2022/03/10 07:00:05;;;;;;;;;;;;;;;-9.52;39.90;101066.06;4908353;29;20018;-64
2022/03/10 07:02:30;;;;;;;;;;;;;;;-9.46;39.96;101060.66;4898774;29;19938;-63
2022/03/10 07:04:56;;;;;;;;;;;;;;;-9.38;40.25;101056.00;4899016;29;20208;-62
2022/03/10 07:07:22;;;;;;;;;;;;;;;-9.40;39.73;101052.66;4897330;29;19962;-63
2022/03/10 07:09:47;;;;;;;;;;;;;;;-9.46;39.41;101059.81;4911175;29;19998;-62
2022/03/10 07:12:13;;;;;;;;;;;;;;;-9.26;39.89;101051.22;4912159;29;19959;-63
2022/03/10 07:14:39;;;;;;;;;;;;;;;-9.13;38.57;101061.78;4913325;29;19927;-61
2022/03/10 07:17:04;;;;;;;;;;;;;;;-9.09;39.06;101048.69;4914989;29;20443;-63
2022/03/10 07:19:30;;;;;;;;;;;;;;;-8.94;38.99;101086.56;4904808;29;19926;-63
2022/03/10 07:21:56;;;;;;;;;;;;;;;-8.93;38.70;101067.66;4911558;29;19932;-63
2022/03/10 07:24:22;;;;;;;;;;;;;;;-8.93;37.67;101061.69;4917723;29;19931;-62
2022/03/10 07:26:48;;;;;;;;;;;;;;;-8.92;38.36;101073.63;4894288;29;20243;-63
2022/03/10 07:29:14;;;;;;;;;;;;;;;-8.77;38.77;101056.63;4895488;29;19942;-63
2022/03/10 07:31:39;;;;;;;;;;;;;;;-8.65;38.72;101055.22;4898723;29;20500;-63
2022/03/10 07:34:05;;;;;;;;;;;;;;;-8.60;38.69;101050.69;4903863;29;19938;-62
2022/03/10 07:36:30;;;;;;;;;;;;;;;-8.48;37.48;101053.50;4892870;29;20385;-62
2022/03/10 07:38:56;;;;;;;;;;;;;;;-8.34;37.25;101064.84;4901969;29;19982;-61
2022/03/10 07:41:22;;;;;;;;;;;;;;;-8.38;38.05;101069.31;4894934;29;19955;-62
2022/03/10 07:43:48;;;;;;;;;;;;;;;-8.44;37.01;101061.06;4879052;29;20018;-61
2022/03/10 07:46:13;;;;;;;;;;;;;;;-8.26;37.84;101045.56;4895276;29;19928;-61
2022/03/10 07:48:39;;;;;;;;;;;;;;;-8.35;36.75;101053.72;4894495;29;19939;-61
2022/03/10 07:51:04;;;;;;;;;;;;;;;-8.31;37.23;101051.81;4896311;29;19959;-63
2022/03/10 07:53:30;;;;;;;;;;;;;;;-8.21;36.16;101035.00;4893719;29;20248;-62
2022/03/10 07:55:56;;;;;;;;;;;;;;;-8.15;37.60;101057.88;4894930;29;19927;-61
2022/03/10 07:58:31;;;;;;;;;;;;;;;-8.05;36.17;101045.38;4909398;29;20439;-61
2022/03/10 08:00:57;;;;;;;;;;;;;;;-7.89;36.29;101043.69;4912946;29;19982;-63
2022/03/10 08:03:23;;;;;;;;;;;;;;;-7.77;36.08;101037.91;4912097;29;19938;-64
2022/03/10 08:05:50;;;;;;;;;;;;;;;-7.64;36.84;101043.25;4913639;29;19927;-61
2022/03/10 08:08:16;;;;;;;;;;;;;;;-7.63;36.70;101036.38;4914293;29;19931;-62
2022/03/10 08:10:41;;;;;;;;;;;;;;;-7.60;36.49;101049.06;4912508;29;20428;-62
2022/03/10 08:13:07;;;;;;;;;;;;;;;-7.54;34.96;101059.06;4912865;29;19931;-64
2022/03/10 08:15:32;;;;;;;;;;;;;;;-7.51;34.74;101047.75;4915408;29;20025;-63
2022/03/10 08:17:58;;;;;;;;;;;;;;;-7.46;34.61;101050.94;4905832;29;20348;-65
2022/03/10 08:20:24;;;;;;;;;;;;;;;-7.45;35.03;101034.56;4913499;29;19938;-63
2022/03/10 08:22:49;;;;;;;;;;;;;;;-7.35;34.42;101030.59;4915025;29;19931;-63
2022/03/10 08:25:15;;;;;;;;;;;;;;;-7.41;35.16;101015.44;4912959;29;19935;-62
2022/03/10 08:27:40;;;;;;;;;;;;;;;-7.28;35.76;101028.50;4895634;29;19931;-65
2022/03/10 08:30:13;;;;;;;;;;;;;;;-7.24;34.73;101020.53;4893038;29;19991;-64
2022/03/10 08:32:39;;;;;;;;;;;;;;;-7.15;35.10;101026.91;4900447;29;19966;-62
2022/03/10 08:35:05;;;;;;;;;;;;;;;-7.22;35.83;101017.88;4882123;29;20351;-62
2022/03/10 08:37:30;;;;;;;;;;;;;;;-7.10;35.46;101028.34;4915199;29;19978;-63
2022/03/10 08:39:56;;;;;;;;;;;;;;;-7.04;34.87;101013.47;4913439;29;19927;-64
2022/03/10 08:42:21;;;;;;;;;;;;;;;-7.17;35.32;101032.19;4914969;29;19938;-62
2022/03/10 08:44:47;;;;;;;;;;;;;;;-7.02;35.56;101029.69;4913902;29;20303;-62
2022/03/10 08:47:13;;;;;;;;;;;;;;;-7.10;35.90;101022.34;4878006;29;19993;-61
2022/03/10 08:49:38;;;;;;;;;;;;;;;-7.18;34.86;101027.09;4893791;29;19943;-64
2022/03/10 08:52:05;;;;;;;;;;;;;;;-7.07;35.54;101032.50;4907137;29;19939;-61
2022/03/10 08:54:32;;;;;;;;;;;;;;;-6.99;34.68;101050.13;4881092;29;19975;-63
2022/03/10 08:56:57;;;;;;;;;;;;;;;-7.00;34.97;101032.97;4911526;29;19931;-61
2022/03/10 08:59:23;;;;;;;;;;;;;;;-6.99;35.41;101030.34;4909541;29;19970;-62
2022/03/10 09:01:49;;;;;;;;;;;;;;;-6.95;35.67;101031.81;4892756;29;20087;-62
2022/03/10 09:04:14;;;;;;;;;;;;;;;-6.82;34.89;101028.56;4891684;29;19932;-63
2022/03/10 09:06:40;;;;;;;;;;;;;;;-6.74;35.18;101021.22;4895861;29;19962;-63
2022/03/10 09:09:05;;;;;;;;;;;;;;;-6.71;34.64;101023.63;4891979;29;20048;-62
2022/03/10 09:11:31;;;;;;;;;;;;;;;-6.60;35.69;101028.19;4891426;29;19927;-63
2022/03/10 09:13:57;;;;;;;;;;;;;;;-6.70;35.47;101033.06;4894008;29;19932;-62
2022/03/10 09:16:22;;;;;;;;;;;;;;;-6.53;34.98;101039.81;4892462;29;20333;-63
2022/03/10 09:18:51;;;;;;;;;;;;;;;-6.48;34.85;101040.41;4893499;29;19939;-65
2022/03/10 09:21:16;;;;;;;;;;;;;;;-6.46;35.04;101021.34;4891385;29;19927;-62
2022/03/10 09:23:42;;;;;;;;;;;;;;;-6.50;35.08;101032.75;4893492;29;19938;-63
2022/03/10 09:26:08;;;;;;;;;;;;;;;-6.37;34.22;101026.88;4891800;29;19963;-62
2022/03/10 09:28:33;;;;;;;;;;;;;;;-6.20;34.69;101022.41;4893351;29;20029;-64
2022/03/10 09:30:59;;;;;;;;;;;;;;;-6.14;34.10;101022.97;4893288;29;20043;-62
2022/03/10 09:33:25;;;;;;;;;;;;;;;-6.18;34.19;101035.22;4891154;29;19987;-63
2022/03/10 09:35:51;;;;;;;;;;;;;;;-6.18;33.63;101025.75;4892439;29;19927;-62
2022/03/10 09:38:17;;;;;;;;;;;;;;;-6.10;33.96;101029.63;4893734;29;19931;-64
2022/03/10 09:40:42;;;;;;;;;;;;;;;-6.09;34.19;101028.69;4891092;29;20428;-63
2022/03/10 09:43:09;;;;;;;;;;;;;;;-5.96;33.62;101021.88;4895798;29;20310;-63
2022/03/10 09:45:35;;;;;;;;;;;;;;;-5.90;33.65;101023.25;4892777;29;20086;-63
2022/03/10 09:48:00;;;;;;;;;;;;;;;-5.87;33.85;101020.47;4893044;29;20026;-62
2022/03/10 09:50:26;;;;;;;;;;;;;;;-5.83;33.38;101014.19;4894039;29;19938;-63
2022/03/10 09:52:52;;;;;;;;;;;;;;;-5.89;33.84;101015.41;4894138;29;19931;-65
2022/03/10 09:55:17;;;;;;;;;;;;;;;-6.11;33.63;101033.94;4893996;29;19928;-63
2022/03/10 09:57:44;;;;;;;;;;;;;;;-6.25;33.96;101029.59;4896195;29;20393;-65
2022/03/10 10:00:13;;;;;;;;;;;;;;;-6.10;33.83;101025.28;4894635;29;19977;-64
2022/03/10 10:02:40;;;;;;;;;;;;;;;-6.05;33.64;101015.53;4891376;29;19938;-63
2022/03/10 10:05:17;;;;;;;;;;;;;;;-5.87;33.78;101002.41;4893712;29;19928;-64
2022/03/10 10:07:43;;;;;;;;;;;;;;;-5.74;33.79;101017.06;4904164;29;19935;-64
2022/03/10 10:10:10;;;;;;;;;;;;;;;-5.70;33.34;101002.22;4906765;29;20295;-64
2022/03/10 10:12:35;;;;;;;;;;;;;;;-5.74;33.53;101021.41;4913592;29;19971;-61
2022/03/10 10:15:01;;;;;;;;;;;;;;;-5.65;32.84;101001.94;4906054;29;20010;-62
2022/03/10 10:17:27;;;;;;;;;;;;;;;-5.59;33.07;101006.72;4895296;29;19950;-62
2022/03/10 10:19:56;;;;;;;;;;;;;;;-5.75;33.16;101017.16;4910180;29;19927;-64
2022/03/10 10:22:24;;;;;;;;;;;;;;;-5.71;33.08;101009.16;4911486;29;20415;-62
2022/03/10 10:24:50;;;;;;;;;;;;;;;-5.63;33.26;100990.56;4912888;29;20095;-62
2022/03/10 10:27:20;;;;;;;;;;;;;;;-5.58;33.21;100995.47;4911236;29;19938;-63
2022/03/10 10:29:50;;;;;;;;;;;;;;;-5.61;32.93;100993.09;4911625;29;19927;-63
2022/03/10 10:32:32;;;;;;;;;;;;;;;-5.63;32.94;100995.75;4912136;29;19939;-63
2022/03/10 10:34:58;;;;;;;;;;;;;;;-5.42;33.33;101021.19;4913604;29;19927;-63
2022/03/10 10:37:24;;;;;;;;;;;;;;;-5.30;32.35;100998.00;4909742;29;19935;-64
2022/03/10 10:39:53;;;;;;;;;;;;;;;-5.22;32.50;100991.53;4908456;29;19927;-63
2022/03/10 10:42:18;;;;;;;;;;;;;;;-5.35;32.77;101000.06;4893344;29;19978;-63
2022/03/10 10:44:44;;;;;;;;;;;;;;;-5.46;32.83;101002.47;4909988;29;19927;-63
2022/03/10 10:47:09;;;;;;;;;;;;;;;-5.37;32.91;101021.75;4912877;29;19973;-61
2022/03/10 10:49:38;;;;;;;;;;;;;;;-5.23;32.38;101018.31;4912256;29;19927;-63
2022/03/10 10:52:03;;;;;;;;;;;;;;;-5.17;32.38;101021.34;4913434;29;19931;-65
2022/03/10 10:54:31;;;;;;;;;;;;;;;-5.15;32.72;101016.06;4896595;29;19934;-64
2022/03/10 10:56:57;;;;;;;;;;;;;;;-5.11;32.79;101038.22;4913788;29;19938;-61
2022/03/10 10:59:26;;;;;;;;;;;;;;;-5.15;32.36;101005.72;4912362;29;20479;-62
2022/03/10 11:02:02;;;;;;;;;;;;;;;-5.23;32.34;101020.91;4912148;29;19931;-64
2022/03/10 11:04:28;;;;;;;;;;;;;;;-5.15;32.40;101003.94;4912668;29;19927;-63
2022/03/10 11:06:53;;;;;;;;;;;;;;;-5.09;32.70;101018.25;4912677;29;19938;-63
2022/03/10 11:09:19;;;;;;;;;;;;;;;-5.17;32.07;101012.75;4913209;29;19966;-63
2022/03/10 11:11:45;;;;;;;;;;;;;;;-5.29;31.79;101042.78;4911648;29;20324;-64
2022/03/10 11:14:10;;;;;;;;;;;;;;;-5.19;31.73;101043.03;4911577;29;19958;-62
2022/03/10 11:16:36;;;;;;;;;;;;;;;-5.18;32.19;101016.25;4897662;29;20392;-64
2022/03/10 11:19:01;;;;;;;;;;;;;;;-5.18;32.97;101018.84;4913600;29;19931;-63
2022/03/10 11:21:38;;;;;;;;;;;;;;;-5.04;32.73;101017.03;4912110;29;20037;-61
2022/03/10 11:24:10;;;;;;;;;;;;;;;-5.08;31.86;101019.94;4911352;29;19931;-63
2022/03/10 11:27:14;;;;;;;;;;;;;;;-5.11;32.57;101046.81;4911996;29;20758;-64
2022/03/10 11:29:40;;;;;;;;;;;;;;;-5.02;31.97;101027.31;4912854;29;20638;-62
2022/03/10 11:32:12;;;;;;;;;;;;;;;-5.00;32.33;101016.84;4896378;29;19930;-61
2022/03/10 11:34:47;;;;;;;;;;;;;;;-5.02;32.79;101012.63;4892264;29;19975;-62
2022/03/10 11:37:13;;;;;;;;;;;;;;;-4.96;31.75;101020.91;4911939;29;20166;-64
2022/03/10 11:39:55;;;;;;;;;;;;;;;-5.07;32.14;101009.47;4913720;29;20357;-62
2022/03/10 11:42:28;;;;;;;;;;;;;;;-4.88;31.59;101005.72;4888962;29;20145;-62
2022/03/10 11:45:06;;;;;;;;;;;;;;;-4.99;31.97;101003.84;4905663;29;20484;-62
2022/03/10 11:47:32;;;;;;;;;;;;;;;-4.90;31.78;101012.75;4896874;29;19931;-61
2022/03/10 11:49:57;;;;;;;;;;;;;;;-4.82;32.56;101026.03;4898004;29;19927;-59
2022/03/10 11:52:24;;;;;;;;;;;;;;;-4.90;32.00;101007.59;4904322;29;19932;-60
2022/03/10 11:55:08;;;;;;;;;;;;;;;-4.85;31.66;101013.31;4879052;29;19928;-61
2022/03/10 11:58:04;;;;;;;;;;;;;;;-4.77;31.62;101010.22;4876343;29;20503;-61
2022/03/10 12:00:39;;;;;;;;;;;;;;;-4.84;31.83;101002.84;4892187;29;19931;-61
2022/03/10 12:03:04;;;;;;;;;;;;;;;-4.73;32.14;100998.75;4903646;29;19959;-62
2022/03/10 12:05:48;;;;;;;;;;;;;;;-4.69;32.92;101013.13;4913201;29;19926;-61
2022/03/10 12:08:14;;;;;;;;;;;;;;;-4.48;32.40;101011.72;4895185;29;19938;-62
2022/03/10 12:10:40;;;;;;;;;;;;;;;-4.27;32.11;101004.31;4912074;29;19927;-61
2022/03/10 12:13:20;;;;;;;;;;;;;;;-3.90;31.73;101002.66;4898473;29;20045;-60
2022/03/10 12:15:45;;;;;;;;;;;;;;;-3.75;31.52;101000.78;4900944;29;19931;-63
2022/03/10 12:18:14;;;;;;;;;;;;;;;-3.70;31.27;101005.66;4879353;29;19931;-62
2022/03/10 12:20:41;;;;;;;;;;;;;;;-3.49;31.45;101027.50;4909829;29;20016;-62
2022/03/10 12:23:07;;;;;;;;;;;;;;;-3.57;30.98;101018.59;4894412;29;19954;-62
2022/03/10 12:25:37;;;;;;;;;;;;;;;-3.44;31.50;101009.06;4893684;29;20283;-62
2022/03/10 12:28:03;;;;;;;;;;;;;;;-3.45;32.42;101002.19;4897550;29;19932;-60
2022/03/10 12:30:28;;;;;;;;;;;;;;;-3.28;31.79;101011.38;4903115;29;19938;-62
2022/03/10 12:32:56;;;;;;;;;;;;;;;-3.09;31.88;101008.31;4896195;29;19935;-61